This is the latest recevied weather packets stored in our database for station/object VK4JLM-1. If no packets are shown the sender has not sent any weather packets the latest 10 day(s).
| Time | Temp. | Humidity | Pressure | Rain* | Wind** | Luminosity | Snow |
|---|---|---|---|---|---|---|---|
| 1777593636 | 24.44° C | 74% | 1027.6 hPa | 0 mm | - | - | - |
| 1777592531 | 28.33° C | 60% | 1027.5 hPa | 0 mm | - | - | - |
| 1777591511 | 26.67° C | 64% | 1027.5 hPa | 0 mm | - | - | - |
| 1777590356 | 25.56° C | 68% | 1027.6 hPa | 0 mm | - | - | - |
| 1777589341 | 26.67° C | 62% | 1027.6 hPa | 0 mm | - | - | - |
| 1777588266 | 24.44° C | 70% | 1027.6 hPa | 0 mm | - | - | - |
| 1777587266 | 24.44° C | 68% | 1027.5 hPa | 0 mm | - | - | - |
| 1777586126 | 23.89° C | 69% | 1027.4 hPa | 0 mm | - | - | - |
| 1777584926 | 21.11° C | 79% | 1027.4 hPa | 0 mm | - | - | - |
| 1777583901 | 17.78° C | 94% | 1027.3 hPa | 0.25 mm | - | - | - |
| 1777582766 | 17.22° C | 96% | 1027.2 hPa | 0.25 mm | - | - | - |
| 1777581654 | 16.67° C | 99% | 1027.2 hPa | 0.51 mm | - | - | - |
| 1777579551 | 16.67° C | 98% | 1026.8 hPa | 1.02 mm | - | - | - |
| 1777578371 | 16.67° C | 97% | 1027.1 hPa | 0.76 mm | - | - | - |
| 1777577261 | 16.67° C | 98% | 1027 hPa | 0 mm | - | - | - |
| 1777576256 | 16.67° C | 100% | 1026.6 hPa | 0 mm | - | - | - |
| 1777575291 | 16.67° C | 100% | 1026.5 hPa | 0.25 mm | - | - | - |
| 1777574294 | 16.67° C | 97% | 1026.6 hPa | 0.25 mm | - | - | - |
| 1777573116 | 16.67° C | 96% | 1026.5 hPa | 0.25 mm | - | - | - |
| 1777571940 | 16.67° C | 97% | 1026.5 hPa | 0 mm | - | - | - |
| 1777570926 | 16.11° C | 99% | 1026.1 hPa | 0 mm | - | - | - |
| 1777569911 | 16.67° C | 100% | 1026.1 hPa | 0 mm | - | - | - |
| 1777568958 | 16.67° C | 100% | 1026.1 hPa | 0 mm | - | - | - |
| 1777567955 | 16.67° C | 99% | 1026.1 hPa | 0 mm | - | - | - |
| 1777566776 | 17.22° C | 99% | 1026.3 hPa | 0.25 mm | - | - | - |
* Rain latest hour (hover to see other rain measurements)
** Current wind speed in m/s (hover to see current wind gust speed)